Time;durP1;ratioP1;P1;durP2;ratioP2;P2;SDS_P1;SDS_P2;PMS_P1;PMS_P2;Temp;Humidity;BMP_temperature;BMP_pressure;BME280_temperature;BME280_humidity;BME280_pressure;Samples;Min_cycle;Max_cycle;Signal;HPM_P1;HPM_P2
2022/04/08 00:02:03;;;;;;;2.80;0.43;;;20.40;99.90;;;;;;4977274;28;20363;-75
2022/04/08 00:04:32;;;;;;;3.03;0.35;;;20.30;99.90;;;;;;4973882;28;20061;-73
2022/04/08 00:07:01;;;;;;;0.60;0.50;;;20.20;99.90;;;;;;4973935;28;20038;-74
2022/04/08 00:09:28;;;;;;;3.33;0.30;;;20.10;99.90;;;;;;4978528;28;20338;-75
2022/04/08 00:11:56;;;;;;;2.70;0.43;;;20.00;99.90;;;;;;4970188;28;20030;-75
2022/04/08 00:14:23;;;;;;;1.85;0.60;;;20.00;99.90;;;;;;4968358;28;20062;-74
2022/04/08 00:16:51;;;;;;;1.40;0.50;;;20.00;99.90;;;;;;4951446;28;20039;-73
2022/04/08 00:19:19;;;;;;;4.38;0.75;;;19.90;99.90;;;;;;4958985;28;20053;-74
2022/04/08 00:21:48;;;;;;;0.93;0.43;;;20.00;99.90;;;;;;4968922;28;20025;-72
2022/04/08 00:24:19;;;;;;;1.60;0.40;;;20.10;99.90;;;;;;4973419;28;20439;-73
2022/04/08 00:26:47;;;;;;;2.33;0.50;;;20.20;99.90;;;;;;4976586;28;20049;-73
2022/04/08 00:29:15;;;;;;;1.20;0.52;;;20.10;99.90;;;;;;4959616;28;20429;-75
2022/04/08 00:31:42;;;;;;;2.40;0.80;;;20.20;99.90;;;;;;4972247;28;20329;-73
2022/04/08 00:34:10;;;;;;;1.40;0.15;;;20.20;99.90;;;;;;4966370;28;20058;-74
2022/04/08 00:36:37;;;;;;;2.30;0.30;;;20.30;99.90;;;;;;4974205;28;20436;-73
2022/04/08 00:39:05;;;;;;;1.75;0.30;;;20.40;99.90;;;;;;4975843;28;20044;-74
2022/04/08 00:41:33;;;;;;;1.30;0.30;;;20.50;99.90;;;;;;4975863;28;20034;-72
2022/04/08 00:44:00;;;;;;;2.72;0.50;;;20.60;99.90;;;;;;4964787;28;20035;-75
2022/04/08 00:46:28;;;;;;;2.60;0.55;;;20.60;99.90;;;;;;4969036;28;20122;-73
2022/04/08 00:48:55;;;;;;;4.05;0.50;;;20.80;99.90;;;;;;4972445;28;20085;-72
2022/04/08 00:51:23;;;;;;;4.72;0.43;;;20.90;99.90;;;;;;4977491;28;20034;-74
2022/04/08 00:53:52;;;;;;;3.17;0.40;;;21.10;99.90;;;;;;4970275;28;20529;-73
2022/04/08 00:56:21;;;;;;;3.38;0.43;;;21.20;99.90;;;;;;4980720;28;20062;-74
2022/04/08 00:58:49;;;;;;;2.67;0.20;;;21.20;99.90;;;;;;4981873;28;20125;-73
2022/04/08 01:01:17;;;;;;;4.30;0.63;;;21.20;99.90;;;;;;4977673;28;20034;-73
2022/04/08 01:03:44;;;;;;;1.58;0.40;;;21.20;99.90;;;;;;4975909;28;20035;-73
2022/04/08 01:06:11;;;;;;;0.55;0.47;;;21.20;99.90;;;;;;4983825;28;20042;-74
2022/04/08 01:08:40;;;;;;;1.23;0.63;;;21.30;99.90;;;;;;4981624;28;20018;-74
2022/04/08 01:11:07;;;;;;;3.45;1.05;;;21.60;99.90;;;;;;4982950;28;20026;-74
2022/04/08 01:13:35;;;;;;;6.40;0.73;;;21.80;99.90;;;;;;4977389;28;20033;-74
2022/04/08 01:16:06;;;;;;;3.03;0.70;;;21.90;99.90;;;;;;4975320;28;20089;-75
2022/04/08 01:18:33;;;;;;;3.70;0.43;;;21.90;99.90;;;;;;4972289;28;20045;-74
2022/04/08 01:21:05;;;;;;;1.00;0.50;;;21.90;99.90;;;;;;4970178;28;20719;-74
2022/04/08 01:23:36;;;;;;;8.60;0.50;;;21.90;99.90;;;;;;4978825;28;21658;-74
2022/04/08 01:26:08;;;;;;;5.03;0.65;;;21.80;99.90;;;;;;4974741;28;20035;-74
2022/04/08 01:28:36;;;;;;;5.43;1.40;;;21.70;99.90;;;;;;4974090;28;20490;-73
2022/04/08 01:31:03;;;;;;;4.68;0.40;;;21.70;99.90;;;;;;4982116;28;20077;-74
2022/04/08 01:33:30;;;;;;;3.50;0.70;;;21.60;99.90;;;;;;5001240;28;20050;-74
2022/04/08 01:35:58;;;;;;;2.00;0.52;;;21.40;99.90;;;;;;4996964;28;20011;-74
2022/04/08 01:38:25;;;;;;;5.50;0.55;;;21.10;99.90;;;;;;4977621;28;20066;-74
2022/04/08 01:40:52;;;;;;;5.10;0.77;;;20.90;99.90;;;;;;4975802;28;20072;-74
2022/04/08 01:43:20;;;;;;;7.18;0.57;;;20.70;99.90;;;;;;4974868;28;20050;-75
2022/04/08 01:45:47;;;;;;;5.05;1.20;;;20.70;99.90;;;;;;4976547;28;20118;-74
2022/04/08 01:48:15;;;;;;;4.10;0.95;;;20.60;99.90;;;;;;4971839;28;20113;-74
2022/04/08 01:50:42;;;;;;;2.78;0.47;;;20.70;99.90;;;;;;4970683;28;20142;-75
2022/04/08 01:53:13;;;;;;;1.77;0.35;;;20.80;99.90;;;;;;4970692;28;20508;-73
2022/04/08 01:55:41;;;;;;;0.57;0.35;;;21.00;99.90;;;;;;4973546;28;20054;-73
2022/04/08 01:58:08;;;;;;;2.00;0.43;;;21.30;99.90;;;;;;4973571;28;20060;-73
2022/04/08 02:00:35;;;;;;;2.38;0.25;;;21.50;99.90;;;;;;4972800;28;20421;-73
2022/04/08 02:03:03;;;;;;;1.52;0.30;;;21.70;99.90;;;;;;4966992;28;20138;-74
2022/04/08 02:05:31;;;;;;;2.47;0.77;;;21.80;99.90;;;;;;4969178;28;20034;-75
2022/04/08 02:07:59;;;;;;;0.10;0.10;;;21.90;99.90;;;;;;4972551;28;20045;-74
2022/04/08 02:10:26;;;;;;;1.98;0.60;;;22.00;99.90;;;;;;4977718;28;20589;-74
2022/04/08 02:12:54;;;;;;;0.73;0.30;;;22.10;99.90;;;;;;4978007;28;20073;-75
2022/04/08 02:15:35;;;;;;;1.23;0.32;;;22.20;99.90;;;;;;4985543;28;20116;-73
2022/04/08 02:18:03;;;;;;;2.20;0.20;;;22.40;99.90;;;;;;4978722;28;20022;-73
2022/04/08 02:20:32;;;;;;;4.32;0.40;;;22.50;99.90;;;;;;4973386;28;20041;-73
2022/04/08 02:23:00;;;;;;;0.88;0.13;;;22.90;99.90;;;;;;4973507;28;20035;-74
2022/04/08 02:25:28;;;;;;;1.65;0.40;;;23.30;99.90;;;;;;4971007;28;20058;-73
2022/04/08 02:27:56;;;;;;;2.60;0.20;;;23.70;99.90;;;;;;4974041;28;20027;-73
2022/04/08 02:30:23;;;;;;;0.82;0.30;;;24.00;99.90;;;;;;4976178;28;20477;-74
2022/04/08 02:32:51;;;;;;;2.97;0.85;;;24.20;99.90;;;;;;4981675;28;20898;-73
2022/04/08 02:35:20;;;;;;;1.27;0.30;;;24.40;99.90;;;;;;4981608;28;20034;-74
2022/04/08 02:37:47;;;;;;;1.33;0.43;;;24.60;99.90;;;;;;4979399;28;20035;-74
2022/04/08 02:40:15;;;;;;;0.60;0.30;;;25.00;99.90;;;;;;4976209;28;20046;-73
2022/04/08 02:42:43;;;;;;;0.82;0.45;;;24.90;99.90;;;;;;4972317;28;20473;-73
2022/04/08 02:45:10;;;;;;;4.80;1.00;;;24.70;99.90;;;;;;4979603;28;20050;-74
2022/04/08 02:47:46;;;;;;;6.47;0.30;;;24.60;99.90;;;;;;4975353;28;20061;-73
2022/04/08 02:50:14;;;;;;;2.78;0.38;;;24.50;99.90;;;;;;4978515;28;20125;-73
2022/04/08 02:52:41;;;;;;;3.35;0.40;;;24.20;99.90;;;;;;4974740;28;20027;-73
2022/04/08 02:55:09;;;;;;;2.42;0.60;;;23.80;99.90;;;;;;4980535;28;20062;-74
2022/04/08 02:57:47;;;;;;;1.02;0.32;;;23.70;99.90;;;;;;4975565;28;20562;-74
2022/04/08 03:00:20;;;;;;;2.40;0.88;;;24.20;99.90;;;;;;4975531;28;20366;-75
2022/04/08 03:02:49;;;;;;;2.67;0.40;;;24.30;99.90;;;;;;4979956;28;20023;-74
2022/04/08 03:05:17;;;;;;;3.83;0.60;;;23.90;99.90;;;;;;4987711;28;20385;-74
2022/04/08 03:07:46;;;;;;;6.30;1.10;;;23.50;99.90;;;;;;4988665;28;20065;-74
2022/04/08 03:10:14;;;;;;;0.60;0.17;;;23.40;99.90;;;;;;4973083;28;20041;-72
2022/04/08 03:12:42;;;;;;;3.33;0.32;;;23.40;99.90;;;;;;4972004;28;20031;-74
2022/04/08 03:15:11;;;;;;;2.50;0.52;;;23.40;99.90;;;;;;4972589;28;20027;-74
2022/04/08 03:17:39;;;;;;;3.25;0.35;;;23.90;99.90;;;;;;4979038;28;20042;-75
2022/04/08 03:20:07;;;;;;;3.30;0.22;;;24.50;99.90;;;;;;4970535;28;20065;-75
2022/04/08 03:22:35;;;;;;;4.22;0.30;;;24.40;99.90;;;;;;4973475;28;20035;-75
2022/04/08 03:25:03;;;;;;;1.23;0.10;;;24.10;99.90;;;;;;4970988;28;20041;-75
2022/04/08 03:27:30;;;;;;;0.90;0.40;;;23.90;99.90;;;;;;4979292;28;20415;-73
2022/04/08 03:29:59;;;;;;;2.83;0.20;;;24.10;99.90;;;;;;4968781;28;20443;-74
2022/04/08 03:32:27;;;;;;;2.28;0.22;;;24.10;99.90;;;;;;4966952;28;20073;-74
2022/04/08 03:34:57;;;;;;;4.07;0.55;;;23.90;99.90;;;;;;4970335;28;20353;-74
2022/04/08 03:37:26;;;;;;;2.95;0.65;;;23.70;99.90;;;;;;4966873;28;20110;-76
2022/04/08 03:39:54;;;;;;;2.13;0.30;;;23.00;99.90;;;;;;4970907;28;20035;-74
2022/04/08 03:42:22;;;;;;;4.22;0.30;;;22.20;99.90;;;;;;4968020;28;20031;-74
2022/04/08 03:44:51;;;;;;;1.48;0.28;;;21.90;99.90;;;;;;4968689;28;20043;-73
2022/04/08 03:47:22;;;;;;;4.22;0.65;;;21.60;99.90;;;;;;4971859;28;20041;-74
2022/04/08 03:49:49;;;;;;;3.40;0.45;;;21.30;99.90;;;;;;4968649;28;20030;-74
2022/04/08 03:52:17;;;;;;;3.55;0.20;;;21.10;99.90;;;;;;4968083;28;20046;-75
2022/04/08 03:54:44;;;;;;;0.90;0.30;;;21.10;99.90;;;;;;4969262;28;20031;-73
2022/04/08 03:57:12;;;;;;;0.82;0.20;;;21.30;99.90;;;;;;4966534;28;20061;-74
2022/04/08 03:59:39;;;;;;;2.10;0.32;;;21.70;99.90;;;;;;4969986;28;20023;-73
2022/04/08 04:02:07;;;;;;;0.68;0.30;;;22.30;99.90;;;;;;4969195;28;20034;-74
2022/04/08 04:04:35;;;;;;;2.75;0.20;;;23.00;99.90;;;;;;4968262;28;20035;-74
2022/04/08 04:07:03;;;;;;;3.13;0.30;;;23.80;99.90;;;;;;4970498;28;20084;-73
2022/04/08 04:09:30;;;;;;;0.88;0.30;;;24.50;99.90;;;;;;4968203;28;20036;-74
2022/04/08 04:11:57;;;;;;;2.85;0.30;;;24.90;99.90;;;;;;4971105;28;20034;-76
2022/04/08 04:14:25;;;;;;;1.50;0.30;;;24.90;99.90;;;;;;4968025;28;20069;-75
2022/04/08 04:16:52;;;;;;;1.90;0.13;;;24.10;99.90;;;;;;4969745;28;20545;-76
2022/04/08 04:19:20;;;;;;;3.25;0.38;;;23.20;99.90;;;;;;4977415;28;20035;-75
2022/04/08 04:21:49;;;;;;;0.88;0.82;;;22.80;99.90;;;;;;4973061;28;20110;-75
2022/04/08 04:24:16;;;;;;;2.78;0.30;;;22.50;99.90;;;;;;4965334;28;20046;-74
2022/04/08 04:26:43;;;;;;;3.53;0.57;;;22.20;99.90;;;;;;4967836;28;20031;-77
2022/04/08 04:29:12;;;;;;;6.53;1.40;;;22.00;99.90;;;;;;4967630;28;20208;-75
2022/04/08 04:31:40;;;;;;;0.93;0.20;;;21.80;99.90;;;;;;4971655;28;20037;-74
2022/04/08 04:34:07;;;;;;;1.75;0.20;;;21.70;99.90;;;;;;4967944;28;20050;-76
2022/04/08 04:36:35;;;;;;;5.35;0.98;;;21.60;99.90;;;;;;4965623;28;20057;-76
2022/04/08 04:39:02;;;;;;;1.45;0.30;;;21.50;99.90;;;;;;4966048;28;20074;-74
2022/04/08 04:41:32;;;;;;;2.40;0.30;;;21.50;99.90;;;;;;4974372;28;20056;-76
2022/04/08 04:44:00;;;;;;;3.95;0.82;;;21.60;99.90;;;;;;4974653;28;20166;-74
2022/04/08 04:46:28;;;;;;;3.40;0.35;;;21.70;99.90;;;;;;4971454;28;20487;-76
2022/04/08 04:48:55;;;;;;;0.22;0.10;;;21.90;99.90;;;;;;4968114;28;20468;-76
2022/04/08 04:51:22;;;;;;;2.05;0.40;;;22.40;99.90;;;;;;4969226;28;20035;-75
2022/04/08 04:53:50;;;;;;;5.35;0.43;;;22.90;99.90;;;;;;4967202;28;20425;-77
2022/04/08 04:56:18;;;;;;;1.20;0.20;;;23.10;99.90;;;;;;4968922;28;20042;-75
2022/04/08 04:58:45;;;;;;;4.10;0.60;;;23.10;99.90;;;;;;4967931;28;20039;-75
2022/04/08 05:01:12;;;;;;;1.63;0.20;;;23.00;99.90;;;;;;4970039;28;20033;-74
2022/04/08 05:03:39;;;;;;;3.60;0.30;;;22.90;99.90;;;;;;4969414;28;20066;-75
2022/04/08 05:06:07;;;;;;;6.30;1.35;;;22.90;99.90;;;;;;4978946;28;20038;-77
2022/04/08 05:08:35;;;;;;;2.78;0.52;;;22.80;99.90;;;;;;4982719;28;20030;-75
2022/04/08 05:11:02;;;;;;;3.13;0.40;;;22.80;99.90;;;;;;4983844;28;20030;-76
2022/04/08 05:13:29;;;;;;;2.17;0.20;;;22.90;99.90;;;;;;4973797;28;20035;-75
2022/04/08 05:15:57;;;;;;;6.32;0.40;;;22.80;99.90;;;;;;4966987;28;20066;-75
2022/04/08 05:18:24;;;;;;;3.05;0.30;;;22.60;99.90;;;;;;4971421;28;20034;-72
2022/04/08 05:20:52;;;;;;;4.07;0.60;;;22.70;99.90;;;;;;4971430;28;20031;-75
2022/04/08 05:23:20;;;;;;;2.85;0.40;;;22.80;99.90;;;;;;4967751;28;20452;-76
2022/04/08 05:25:51;;;;;;;2.92;0.40;;;22.80;99.90;;;;;;4968628;28;20046;-77
2022/04/08 05:28:20;;;;;;;1.27;0.35;;;22.80;99.90;;;;;;4971732;28;20126;-74
2022/04/08 05:30:48;;;;;;;0.95;0.30;;;22.50;99.90;;;;;;4969222;28;20030;-74
2022/04/08 05:33:15;;;;;;;6.05;0.50;;;22.40;99.90;;;;;;4966808;28;20043;-74
2022/04/08 05:35:44;;;;;;;4.72;0.52;;;22.20;99.90;;;;;;4968901;28;20061;-74
2022/04/08 05:38:11;;;;;;;1.67;0.47;;;22.10;99.90;;;;;;4968410;28;20026;-73
2022/04/08 05:40:38;;;;;;;4.38;1.35;;;22.20;99.90;;;;;;4971523;28;20038;-72
2022/04/08 05:43:06;;;;;;;1.17;0.45;;;22.20;99.90;;;;;;4970500;28;20030;-72
2022/04/08 05:45:37;;;;;;;7.45;0.30;;;22.30;99.90;;;;;;4973577;28;20048;-73
2022/04/08 05:48:07;;;;;;;1.55;0.75;;;22.40;99.90;;;;;;4972358;28;20050;-73
2022/04/08 05:50:35;;;;;;;1.15;0.20;;;22.50;99.90;;;;;;4971066;28;20055;-73
2022/04/08 05:53:03;;;;;;;2.20;0.20;;;22.60;99.90;;;;;;4972205;28;20034;-74
2022/04/08 05:55:30;;;;;;;3.33;0.40;;;22.50;99.90;;;;;;4971104;28;20038;-73
2022/04/08 05:57:58;;;;;;;0.73;0.20;;;22.50;99.90;;;;;;4971498;28;20026;-73
2022/04/08 06:00:25;;;;;;;2.55;0.28;;;22.50;99.90;;;;;;4977568;28;20033;-73
2022/04/08 06:02:55;;;;;;;1.90;0.60;;;22.50;99.90;;;;;;4979367;28;20045;-75
2022/04/08 06:05:23;;;;;;;2.13;0.30;;;22.50;99.90;;;;;;4971389;28;20054;-72
2022/04/08 06:07:52;;;;;;;2.22;0.52;;;22.40;99.90;;;;;;4972089;28;20056;-74
2022/04/08 06:10:22;;;;;;;1.65;0.20;;;22.30;99.90;;;;;;4974890;28;20320;-73
2022/04/08 06:12:56;;;;;;;1.50;0.40;;;22.30;99.90;;;;;;4972798;28;20066;-73
2022/04/08 06:15:26;;;;;;;5.65;0.20;;;22.20;99.90;;;;;;4975230;28;20054;-73
2022/04/08 06:17:57;;;;;;;1.95;0.20;;;22.10;99.90;;;;;;4967579;28;20057;-73
2022/04/08 06:20:26;;;;;;;1.55;0.15;;;22.00;99.90;;;;;;4970299;28;20477;-73
2022/04/08 06:22:54;;;;;;;3.47;0.98;;;21.90;99.90;;;;;;4971299;28;20046;-73
2022/04/08 06:25:25;;;;;;;2.63;0.15;;;21.90;99.90;;;;;;4972637;28;20425;-74
2022/04/08 06:27:58;;;;;;;0.80;0.20;;;21.90;99.90;;;;;;4970695;28;20039;-73
2022/04/08 06:30:26;;;;;;;1.35;0.20;;;21.80;99.90;;;;;;4971819;28;20073;-73
2022/04/08 06:32:53;;;;;;;0.98;0.10;;;21.80;99.90;;;;;;4971626;28;20468;-75
2022/04/08 06:35:21;;;;;;;3.67;0.20;;;21.80;99.90;;;;;;4971145;28;20022;-73
2022/04/08 06:37:49;;;;;;;1.70;0.20;;;21.80;99.90;;;;;;4971954;28;20154;-72
2022/04/08 06:40:16;;;;;;;1.60;0.30;;;21.70;99.90;;;;;;4967492;28;20355;-76
2022/04/08 06:42:44;;;;;;;2.63;0.30;;;21.80;99.90;;;;;;4970438;28;20076;-73
2022/04/08 06:45:11;;;;;;;2.35;0.30;;;21.80;99.90;;;;;;4972172;28;20085;-75
2022/04/08 06:47:51;;;;;;;0.73;0.17;;;21.80;99.90;;;;;;4977755;28;20474;-75
2022/04/08 06:50:20;;;;;;;2.47;0.60;;;21.70;99.90;;;;;;4973389;28;20037;-76
2022/04/08 06:52:48;;;;;;;3.10;0.40;;;21.60;99.90;;;;;;4971789;28;20038;-77
2022/04/08 06:55:15;;;;;;;1.98;0.30;;;21.60;99.90;;;;;;4974831;28;20359;-75
2022/04/08 06:57:43;;;;;;;1.13;0.22;;;21.50;99.90;;;;;;4978650;28;20069;-75
2022/04/08 07:00:13;;;;;;;3.85;0.50;;;21.40;99.90;;;;;;4982822;28;20038;-75
2022/04/08 07:02:40;;;;;;;5.03;0.93;;;21.40;99.90;;;;;;4975443;28;20737;-76
2022/04/08 07:05:08;;;;;;;3.30;0.50;;;21.30;99.90;;;;;;4973915;28;20513;-74
2022/04/08 07:07:37;;;;;;;2.95;0.60;;;21.30;99.90;;;;;;4972178;28;20035;-74
2022/04/08 07:10:05;;;;;;;2.72;0.68;;;21.20;99.90;;;;;;4972076;28;20507;-76
2022/04/08 07:12:33;;;;;;;4.75;0.88;;;21.20;99.90;;;;;;4969480;28;20026;-73
2022/04/08 07:15:01;;;;;;;4.97;0.47;;;21.10;99.90;;;;;;4970289;28;20031;-75
2022/04/08 07:17:32;;;;;;;5.20;0.60;;;21.10;99.90;;;;;;4970773;28;20100;-73
2022/04/08 07:20:00;;;;;;;2.90;0.63;;;21.10;99.90;;;;;;4969634;28;20035;-73
2022/04/08 07:22:28;;;;;;;3.67;0.93;;;21.00;99.90;;;;;;4973962;28;20030;-74
2022/04/08 07:24:56;;;;;;;2.65;0.70;;;21.00;99.90;;;;;;4967987;28;20065;-75
2022/04/08 07:27:23;;;;;;;4.78;0.50;;;21.00;99.90;;;;;;4969840;28;20027;-75
2022/04/08 07:29:51;;;;;;;4.60;0.60;;;21.00;99.90;;;;;;4972186;28;20076;-76
2022/04/08 07:32:22;;;;;;;3.30;1.55;;;21.10;99.90;;;;;;4969894;28;20385;-76
2022/04/08 07:34:56;;;;;;;3.15;0.80;;;21.10;99.90;;;;;;4973011;28;20057;-73
2022/04/08 07:37:33;;;;;;;2.05;0.65;;;21.00;99.90;;;;;;4972210;28;20101;-75
2022/04/08 07:40:01;;;;;;;5.78;0.85;;;20.80;99.90;;;;;;4973149;28;20121;-74
2022/04/08 07:42:28;;;;;;;3.05;0.95;;;20.50;99.90;;;;;;4973417;28;20105;-74
2022/04/08 07:44:55;;;;;;;2.38;0.77;;;20.30;99.90;;;;;;4979056;28;20042;-76
2022/04/08 07:47:28;;;;;;;3.67;1.27;;;20.20;99.90;;;;;;4972329;28;20038;-75
2022/04/08 07:50:10;;;;;;;6.18;1.75;;;20.10;99.90;;;;;;4973770;28;20042;-76
2022/04/08 07:52:42;;;;;;;4.80;1.50;;;20.00;99.90;;;;;;4966640;28;20595;-77
2022/04/08 07:55:10;;;;;;;6.47;1.88;;;19.90;99.90;;;;;;4966980;28;20037;-77
2022/04/08 07:57:45;;;;;;;7.13;1.58;;;19.80;99.90;;;;;;4967200;28;20150;-76
2022/04/08 08:00:14;;;;;;;3.08;0.88;;;19.80;99.90;;;;;;4969855;28;20053;-77
2022/04/08 08:02:43;;;;;;;4.43;1.10;;;19.70;99.90;;;;;;4967948;28;20061;-78
2022/04/08 08:05:11;;;;;;;10.73;1.88;;;19.70;99.90;;;;;;4972865;28;20093;-78
2022/04/08 08:07:45;;;;;;;5.90;1.05;;;19.70;99.90;;;;;;4973717;28;20027;-79
2022/04/08 08:10:26;;;;;;;8.93;1.17;;;19.70;99.90;;;;;;4972896;28;20117;-79
2022/04/08 08:12:55;;;;;;;7.80;1.77;;;19.80;99.90;;;;;;4971610;28;20290;-76
2022/04/08 08:15:24;;;;;;;4.65;1.00;;;19.70;99.90;;;;;;4970299;28;20432;-77
2022/04/08 08:17:52;;;;;;;6.20;1.67;;;19.80;99.90;;;;;;4980658;28;20077;-75
2022/04/08 08:20:20;;;;;;;5.97;1.67;;;19.80;99.90;;;;;;4969980;28;20030;-75
2022/04/08 08:22:51;;;;;;;8.88;1.13;;;19.80;99.90;;;;;;4972862;28;20031;-76
2022/04/08 08:25:21;;;;;;;3.95;0.70;;;19.80;99.90;;;;;;4976417;28;20041;-76
2022/04/08 08:27:53;;;;;;;2.88;0.70;;;19.80;99.90;;;;;;4982037;28;20027;-76
2022/04/08 08:30:21;;;;;;;2.60;0.93;;;19.80;99.90;;;;;;4973320;28;20045;-76
2022/04/08 08:32:50;;;;;;;4.57;1.48;;;19.80;99.90;;;;;;4975738;28;20397;-78
2022/04/08 08:35:19;;;;;;;4.80;2.47;;;19.70;99.90;;;;;;4976951;28;20054;-77
2022/04/08 08:37:48;;;;;;;12.00;4.15;;;19.70;99.90;;;;;;4977743;28;20050;-76
2022/04/08 08:40:17;;;;;;;10.18;3.03;;;19.60;99.90;;;;;;4977660;28;20027;-75
2022/04/08 08:42:45;;;;;;;11.40;3.47;;;19.60;99.90;;;;;;4978789;28;20121;-77
2022/04/08 08:45:17;;;;;;;8.48;2.75;;;19.60;99.90;;;;;;4974547;28;20047;-76
2022/04/08 08:47:48;;;;;;;4.80;1.27;;;19.60;99.90;;;;;;4973175;28;20121;-76
2022/04/08 08:50:17;;;;;;;5.40;1.10;;;19.50;99.90;;;;;;4979296;28;20034;-76
2022/04/08 08:52:50;;;;;;;6.95;1.30;;;19.50;99.90;;;;;;5000078;28;20041;-76
2022/04/08 08:55:19;;;;;;;4.57;1.95;;;19.40;99.90;;;;;;4995625;28;20061;-76
2022/04/08 08:57:47;;;;;;;2.10;1.00;;;19.40;99.90;;;;;;4991166;28;20039;-76
2022/04/08 09:00:20;;;;;;;7.78;1.23;;;19.30;99.90;;;;;;4975220;28;20054;-76
2022/04/08 09:02:49;;;;;;;6.07;0.98;;;19.20;99.90;;;;;;4979511;28;20050;-76
2022/04/08 09:05:19;;;;;;;4.00;1.60;;;19.10;99.90;;;;;;4973892;28;20045;-76
2022/04/08 09:08:00;;;;;;;14.55;6.30;;;19.10;99.90;;;;;;4973540;28;20023;-76
2022/04/08 09:10:34;;;;;;;12.82;7.30;;;19.00;99.90;;;;;;4977252;28;20019;-76
2022/04/08 09:13:04;;;;;;;10.23;5.97;;;18.90;99.90;;;;;;4971205;28;20536;-77
2022/04/08 09:15:34;;;;;;;7.93;3.45;;;18.90;99.90;;;;;;4987030;28;20034;-75
2022/04/08 09:18:13;;;;;;;9.75;3.28;;;18.80;99.90;;;;;;4975728;28;20081;-76
2022/04/08 09:20:51;;;;;;;9.77;3.88;;;18.90;99.90;;;;;;4980788;28;20037;-79
2022/04/08 09:23:20;;;;;;;5.65;2.65;;;18.90;99.90;;;;;;4992445;28;20054;-78
2022/04/08 09:25:49;;;;;;;6.07;2.28;;;18.90;99.90;;;;;;4982464;28;20622;-79
2022/04/08 09:28:20;;;;;;;6.68;1.58;;;19.00;99.90;;;;;;4983468;28;20031;-79
2022/04/08 09:30:52;;;;;;;4.20;1.27;;;19.10;99.90;;;;;;4988305;28;20362;-77
2022/04/08 09:33:24;;;;;;;8.13;1.10;;;19.10;99.90;;;;;;4987205;28;20066;-78
2022/04/08 09:35:56;;;;;;;3.17;0.70;;;19.10;99.90;;;;;;4993461;28;20077;-77
2022/04/08 09:38:26;;;;;;;8.27;1.52;;;19.20;99.90;;;;;;4988222;28;20026;-79
2022/04/08 09:41:06;;;;;;;9.90;2.28;;;19.20;99.90;;;;;;4991626;28;20354;-77
2022/04/08 09:43:35;;;;;;;6.68;1.30;;;19.20;99.90;;;;;;4992882;28;20085;-78
2022/04/08 09:46:21;;;;;;;4.78;1.20;;;19.20;99.90;;;;;;4979427;28;20050;-78
2022/04/08 09:48:49;;;;;;;3.78;1.35;;;19.10;99.90;;;;;;4982210;28;20184;-79
2022/04/08 09:51:23;;;;;;;4.63;1.17;;;19.00;99.90;;;;;;4973629;28;20027;-79
2022/04/08 09:54:02;;;;;;;3.47;1.88;;;19.00;99.90;;;;;;4991288;28;20237;-77
2022/04/08 09:56:30;;;;;;;6.68;2.25;;;18.90;99.90;;;;;;4983038;28;20066;-79
2022/04/08 09:59:06;;;;;;;4.88;1.55;;;18.80;99.90;;;;;;4984404;28;20465;-77
2022/04/08 10:01:36;;;;;;;5.47;1.50;;;18.80;99.90;;;;;;4987714;28;20045;-77
2022/04/08 10:04:08;;;;;;;4.30;0.90;;;18.70;99.90;;;;;;4976196;28;20042;-80
2022/04/08 10:06:40;;;;;;;3.55;1.60;;;18.70;99.90;;;;;;4979353;28;20038;-77
2022/04/08 10:09:14;;;;;;;6.70;1.23;;;18.70;99.90;;;;;;4980165;28;20138;-78
2022/04/08 10:12:02;;;;;;;3.42;1.33;;;18.70;99.90;;;;;;4973813;28;20019;-77
2022/04/08 10:14:40;;;;;;;3.83;2.25;;;18.70;99.90;;;;;;4979007;28;20152;-77
2022/04/08 10:17:09;;;;;;;7.65;1.50;;;18.70;99.90;;;;;;4986991;28;20026;-77
2022/04/08 10:19:37;;;;;;;9.40;1.75;;;18.80;99.90;;;;;;4977171;28;20084;-77
2022/04/08 10:22:14;;;;;;;5.35;1.25;;;18.90;99.90;;;;;;4981920;28;20030;-76
2022/04/08 10:24:56;;;;;;;3.45;0.98;;;19.00;99.90;;;;;;4987499;28;20129;-78
2022/04/08 10:27:38;;;;;;;7.20;1.38;;;19.00;99.90;;;;;;4997105;28;20019;-78
2022/04/08 10:30:36;;;;;;;5.80;0.63;;;19.10;99.90;;;;;;4980117;28;20031;-77
2022/04/08 10:33:07;;;;;;;6.05;0.70;;;19.10;99.90;;;;;;4975836;28;20690;-78
2022/04/08 10:35:37;;;;;;;5.28;1.55;;;19.10;99.90;;;;;;4983459;28;20820;-79
2022/04/08 10:38:06;;;;;;;6.43;0.82;;;19.20;99.90;;;;;;4985427;28;20073;-79
2022/04/08 10:40:39;;;;;;;6.05;1.58;;;19.20;99.90;;;;;;4979150;28;20441;-79
2022/04/08 10:43:09;;;;;;;9.55;1.20;;;19.20;99.90;;;;;;4975078;28;20085;-79
2022/04/08 10:45:38;;;;;;;7.20;0.90;;;19.10;99.90;;;;;;4989733;28;20030;-78
2022/04/08 10:48:11;;;;;;;6.68;1.60;;;19.10;99.90;;;;;;4986323;28;20070;-79
2022/04/08 10:50:40;;;;;;;4.88;1.45;;;19.10;99.90;;;;;;4994522;28;20037;-79
2022/04/08 10:53:24;;;;;;;4.55;0.90;;;19.10;99.90;;;;;;4987976;28;20030;-79
2022/04/08 10:55:56;;;;;;;2.40;0.85;;;19.10;99.90;;;;;;4976723;28;20026;-79
2022/04/08 10:58:52;;;;;;;3.05;0.75;;;19.10;99.90;;;;;;4983231;28;20506;-78
2022/04/08 11:01:27;;;;;;;8.55;1.17;;;19.00;99.90;;;;;;4982399;28;20155;-79
2022/04/08 11:04:00;;;;;;;4.28;0.85;;;19.00;99.90;;;;;;4972969;28;20045;-79
2022/04/08 11:06:30;;;;;;;5.88;0.90;;;19.00;99.90;;;;;;4974808;28;20039;-79
2022/04/08 11:09:04;;;;;;;4.70;0.73;;;18.90;99.90;;;;;;4973406;28;20073;-78
2022/04/08 11:11:36;;;;;;;6.63;1.17;;;18.90;99.90;;;;;;4977128;28;20093;-78
2022/04/08 11:14:05;;;;;;;5.60;0.70;;;18.90;99.90;;;;;;4974370;28;20049;-79
2022/04/08 11:16:34;;;;;;;4.40;0.80;;;18.90;99.90;;;;;;4979495;28;20031;-79
2022/04/08 11:19:05;;;;;;;7.88;0.82;;;18.90;99.90;;;;;;4979731;28;20472;-80
2022/04/08 11:21:38;;;;;;;7.32;0.93;;;18.90;99.90;;;;;;4970568;28;20027;-77
2022/04/08 11:24:08;;;;;;;6.93;0.75;;;18.90;99.90;;;;;;4969981;28;20039;-80
2022/04/08 11:27:01;;;;;;;7.15;0.95;;;18.90;99.90;;;;;;4969660;28;20501;-78
2022/04/08 11:29:29;;;;;;;8.88;0.70;;;19.00;99.90;;;;;;4970850;28;20043;-77
2022/04/08 11:32:17;;;;;;;6.00;1.30;;;19.10;99.90;;;;;;4971453;28;20054;-76
2022/04/08 11:34:44;;;;;;;6.97;0.82;;;19.10;99.90;;;;;;4972587;28;20448;-78
2022/04/08 11:37:11;;;;;;;4.63;0.98;;;19.20;99.90;;;;;;4970847;28;20026;-76
2022/04/08 11:39:40;;;;;;;5.15;0.68;;;19.10;99.90;;;;;;4971607;28;20038;-75
2022/04/08 11:42:08;;;;;;;3.92;0.68;;;19.10;99.90;;;;;;4973375;28;20031;-76
2022/04/08 11:44:35;;;;;;;5.80;1.55;;;19.00;99.90;;;;;;4973333;28;20041;-77
2022/04/08 11:47:13;;;;;;;3.30;0.65;;;18.90;99.90;;;;;;4973855;28;20030;-78
2022/04/08 11:49:41;;;;;;;4.65;1.13;;;18.90;99.90;;;;;;4971698;28;20026;-77
2022/04/08 11:52:08;;;;;;;6.88;0.57;;;18.80;99.90;;;;;;4969209;28;20038;-78
2022/04/08 11:54:40;;;;;;;4.40;1.40;;;18.80;99.90;;;;;;4973449;28;20058;-77
2022/04/08 11:57:08;;;;;;;3.25;0.50;;;18.70;99.90;;;;;;4970587;28;20114;-76
2022/04/08 11:59:36;;;;;;;1.77;0.47;;;18.60;99.90;;;;;;4978722;28;20037;-76
2022/04/08 12:02:04;;;;;;;4.68;1.45;;;18.60;99.90;;;;;;4974400;28;20108;-76
2022/04/08 12:04:33;;;;;;;2.47;0.35;;;18.60;99.90;;;;;;4970352;28;20073;-77
2022/04/08 12:07:01;;;;;;;4.82;1.27;;;18.70;99.90;;;;;;4969351;28;20038;-77
2022/04/08 12:09:28;;;;;;;2.83;0.50;;;18.70;99.90;;;;;;4971061;28;20038;-77
2022/04/08 12:11:57;;;;;;;5.88;1.50;;;18.70;99.90;;;;;;4974466;28;20038;-76
2022/04/08 12:14:26;;;;;;;4.85;0.70;;;18.70;99.90;;;;;;4969071;28;20023;-75
2022/04/08 12:17:02;;;;;;;5.72;2.00;;;18.70;99.90;;;;;;4971203;28;20038;-76
2022/04/08 12:19:38;;;;;;;6.97;0.60;;;18.70;99.90;;;;;;4973107;28;21577;-77
2022/04/08 12:22:16;;;;;;;5.28;0.85;;;18.70;99.90;;;;;;4974367;28;20023;-75
2022/04/08 12:24:45;;;;;;;4.78;0.70;;;18.70;99.90;;;;;;4998671;28;20042;-76
2022/04/08 12:27:20;;;;;;;4.60;1.00;;;18.70;99.90;;;;;;4989273;28;22205;-76
2022/04/08 12:30:08;;;;;;;8.00;0.68;;;18.70;99.90;;;;;;4989514;28;20026;-77
2022/04/08 12:32:39;;;;;;;2.00;0.45;;;18.80;99.90;;;;;;4971665;28;20051;-78
2022/04/08 12:35:15;;;;;;;5.20;0.70;;;18.80;99.90;;;;;;4975140;28;20066;-76
2022/04/08 12:37:42;;;;;;;2.72;0.47;;;18.90;99.90;;;;;;4977966;28;20377;-75
2022/04/08 12:40:10;;;;;;;7.05;1.25;;;18.80;99.90;;;;;;4972495;28;20038;-78
2022/04/08 12:42:39;;;;;;;4.07;1.00;;;18.80;99.90;;;;;;4985430;28;20035;-76
2022/04/08 12:45:07;;;;;;;2.65;0.95;;;18.80;99.90;;;;;;4969865;28;20130;-77
2022/04/08 12:47:35;;;;;;;4.32;0.70;;;18.80;99.90;;;;;;4969464;28;20073;-76
2022/04/08 12:50:03;;;;;;;4.88;0.98;;;18.80;99.90;;;;;;4975196;28;20042;-77
2022/04/08 12:52:30;;;;;;;8.00;2.15;;;18.90;99.90;;;;;;4973102;28;20042;-77
2022/04/08 12:54:57;;;;;;;2.47;0.85;;;18.80;99.90;;;;;;4979588;28;20036;-77
2022/04/08 12:57:25;;;;;;;8.80;1.52;;;18.80;99.90;;;;;;4990444;28;20050;-78
2022/04/08 12:59:52;;;;;;;4.75;0.73;;;18.80;99.90;;;;;;4978589;28;20037;-77